sensor_id;sensor_type;location;lat;lon;timestamp;temperature;humidity
11762;DHT22;5938;47.098;15.474;2023-05-10T00:03:29;7.00;99.90
11762;DHT22;5938;47.098;15.474;2023-05-10T00:07:35;6.90;99.90
11762;DHT22;5938;47.098;15.474;2023-05-10T00:11:38;6.90;99.90
11762;DHT22;5938;47.098;15.474;2023-05-10T00:15:42;6.80;99.90
11762;DHT22;5938;47.098;15.474;2023-05-10T00:19:45;6.80;99.90
11762;DHT22;5938;47.098;15.474;2023-05-10T00:23:49;6.70;99.90
11762;DHT22;5938;47.098;15.474;2023-05-10T00:27:52;6.60;99.90
11762;DHT22;5938;47.098;15.474;2023-05-10T00:31:56;6.60;99.90
11762;DHT22;5938;47.098;15.474;2023-05-10T00:36:00;6.50;99.90
11762;DHT22;5938;47.098;15.474;2023-05-10T00:40:06;6.40;99.90
11762;DHT22;5938;47.098;15.474;2023-05-10T00:44:09;6.40;99.90
11762;DHT22;5938;47.098;15.474;2023-05-10T00:48:12;6.40;99.90
11762;DHT22;5938;47.098;15.474;2023-05-10T00:52:16;6.40;99.90
11762;DHT22;5938;47.098;15.474;2023-05-10T00:56:20;6.30;99.90
11762;DHT22;5938;47.098;15.474;2023-05-10T01:00:25;6.30;99.90
11762;DHT22;5938;47.098;15.474;2023-05-10T01:04:28;6.20;99.90
11762;DHT22;5938;47.098;15.474;2023-05-10T01:08:32;6.10;99.90
11762;DHT22;5938;47.098;15.474;2023-05-10T01:12:39;6.00;99.90
11762;DHT22;5938;47.098;15.474;2023-05-10T01:16:44;6.00;99.90
11762;DHT22;5938;47.098;15.474;2023-05-10T01:20:56;6.00;99.90
11762;DHT22;5938;47.098;15.474;2023-05-10T01:34:34;5.70;99.90
11762;DHT22;5938;47.098;15.474;2023-05-10T01:38:42;5.70;99.90
11762;DHT22;5938;47.098;15.474;2023-05-10T01:42:49;5.60;99.90
11762;DHT22;5938;47.098;15.474;2023-05-10T01:46:59;5.50;99.90
11762;DHT22;5938;47.098;15.474;2023-05-10T01:51:10;5.50;99.90
11762;DHT22;5938;47.098;15.474;2023-05-10T01:55:19;5.50;99.90
11762;DHT22;5938;47.098;15.474;2023-05-10T01:59:29;5.40;99.90
11762;DHT22;5938;47.098;15.474;2023-05-10T02:03:36;5.40;99.90
11762;DHT22;5938;47.098;15.474;2023-05-10T02:07:45;5.40;99.90
11762;DHT22;5938;47.098;15.474;2023-05-10T02:11:50;5.30;99.90
11762;DHT22;5938;47.098;15.474;2023-05-10T02:15:55;5.30;99.90
11762;DHT22;5938;47.098;15.474;2023-05-10T02:20:00;5.30;99.90
11762;DHT22;5938;47.098;15.474;2023-05-10T02:24:08;5.20;99.90
11762;DHT22;5938;47.098;15.474;2023-05-10T02:28:15;5.20;99.90
11762;DHT22;5938;47.098;15.474;2023-05-10T02:32:19;5.10;99.90
11762;DHT22;5938;47.098;15.474;2023-05-10T02:36:26;5.10;99.90
11762;DHT22;5938;47.098;15.474;2023-05-10T02:40:32;5.10;99.90
11762;DHT22;5938;47.098;15.474;2023-05-10T02:44:37;5.00;99.90
11762;DHT22;5938;47.098;15.474;2023-05-10T02:48:41;5.00;99.90
11762;DHT22;5938;47.098;15.474;2023-05-10T02:52:47;5.00;99.90
11762;DHT22;5938;47.098;15.474;2023-05-10T02:56:58;4.90;99.90
11762;DHT22;5938;47.098;15.474;2023-05-10T03:01:02;5.00;99.90
11762;DHT22;5938;47.098;15.474;2023-05-10T03:05:07;4.90;99.90
11762;DHT22;5938;47.098;15.474;2023-05-10T03:09:11;4.90;99.90
11762;DHT22;5938;47.098;15.474;2023-05-10T03:13:28;4.90;99.90
11762;DHT22;5938;47.098;15.474;2023-05-10T03:17:39;4.80;99.90
11762;DHT22;5938;47.098;15.474;2023-05-10T03:21:49;4.80;99.90
11762;DHT22;5938;47.098;15.474;2023-05-10T03:25:54;4.80;99.90
11762;DHT22;5938;47.098;15.474;2023-05-10T03:29:58;4.80;99.90
11762;DHT22;5938;47.098;15.474;2023-05-10T03:34:02;4.70;99.90
11762;DHT22;5938;47.098;15.474;2023-05-10T03:38:05;4.70;99.90
11762;DHT22;5938;47.098;15.474;2023-05-10T03:42:09;4.70;99.90
11762;DHT22;5938;47.098;15.474;2023-05-10T03:46:15;4.80;99.90
11762;DHT22;5938;47.098;15.474;2023-05-10T03:50:18;4.80;99.90
11762;DHT22;5938;47.098;15.474;2023-05-10T03:54:21;4.80;99.90
11762;DHT22;5938;47.098;15.474;2023-05-10T03:58:24;4.80;99.90
11762;DHT22;5938;47.098;15.474;2023-05-10T04:02:29;4.90;99.90
11762;DHT22;5938;47.098;15.474;2023-05-10T04:06:33;4.80;99.90
11762;DHT22;5938;47.098;15.474;2023-05-10T04:10:37;4.90;99.90
11762;DHT22;5938;47.098;15.474;2023-05-10T04:14:40;4.90;99.90
11762;DHT22;5938;47.098;15.474;2023-05-10T04:18:44;5.00;99.90
11762;DHT22;5938;47.098;15.474;2023-05-10T04:22:48;5.10;99.90
11762;DHT22;5938;47.098;15.474;2023-05-10T04:26:51;5.10;99.90
11762;DHT22;5938;47.098;15.474;2023-05-10T04:31:01;5.20;99.90
11762;DHT22;5938;47.098;15.474;2023-05-10T04:35:07;5.20;99.90
11762;DHT22;5938;47.098;15.474;2023-05-10T04:39:11;5.30;99.90
11762;DHT22;5938;47.098;15.474;2023-05-10T04:43:15;5.50;99.90
11762;DHT22;5938;47.098;15.474;2023-05-10T04:47:19;5.60;99.90
11762;DHT22;5938;47.098;15.474;2023-05-10T04:51:25;5.60;99.90
11762;DHT22;5938;47.098;15.474;2023-05-10T04:55:29;5.70;99.90
11762;DHT22;5938;47.098;15.474;2023-05-10T04:59:33;5.80;99.90
11762;DHT22;5938;47.098;15.474;2023-05-10T05:03:38;5.90;99.90
11762;DHT22;5938;47.098;15.474;2023-05-10T05:07:44;5.90;99.90
11762;DHT22;5938;47.098;15.474;2023-05-10T05:11:52;6.00;99.90
11762;DHT22;5938;47.098;15.474;2023-05-10T05:15:56;6.00;99.90
11762;DHT22;5938;47.098;15.474;2023-05-10T05:20:00;6.10;99.90
11762;DHT22;5938;47.098;15.474;2023-05-10T05:24:06;6.20;99.90
11762;DHT22;5938;47.098;15.474;2023-05-10T05:28:09;6.30;99.90
11762;DHT22;5938;47.098;15.474;2023-05-10T05:32:12;6.40;99.90
11762;DHT22;5938;47.098;15.474;2023-05-10T05:36:16;6.50;99.90
11762;DHT22;5938;47.098;15.474;2023-05-10T05:40:21;6.60;99.90
11762;DHT22;5938;47.098;15.474;2023-05-10T05:44:24;6.80;99.90
11762;DHT22;5938;47.098;15.474;2023-05-10T05:48:29;7.10;99.90
11762;DHT22;5938;47.098;15.474;2023-05-10T05:52:33;7.30;99.90
11762;DHT22;5938;47.098;15.474;2023-05-10T05:56:39;7.50;99.90
11762;DHT22;5938;47.098;15.474;2023-05-10T06:00:42;7.90;99.90
11762;DHT22;5938;47.098;15.474;2023-05-10T06:04:45;8.40;99.90
11762;DHT22;5938;47.098;15.474;2023-05-10T06:08:48;8.90;99.90
11762;DHT22;5938;47.098;15.474;2023-05-10T06:12:53;9.40;99.90
11762;DHT22;5938;47.098;15.474;2023-05-10T06:16:56;9.90;99.90
11762;DHT22;5938;47.098;15.474;2023-05-10T06:21:01;10.20;99.90
11762;DHT22;5938;47.098;15.474;2023-05-10T06:25:05;10.60;99.90
11762;DHT22;5938;47.098;15.474;2023-05-10T06:29:10;10.90;99.90
11762;DHT22;5938;47.098;15.474;2023-05-10T06:33:14;11.20;99.90
11762;DHT22;5938;47.098;15.474;2023-05-10T06:37:18;11.50;99.90
11762;DHT22;5938;47.098;15.474;2023-05-10T06:41:21;12.00;99.90
11762;DHT22;5938;47.098;15.474;2023-05-10T06:45:27;12.50;99.90
11762;DHT22;5938;47.098;15.474;2023-05-10T06:49:30;13.00;99.90
11762;DHT22;5938;47.098;15.474;2023-05-10T06:53:33;13.20;99.90
11762;DHT22;5938;47.098;15.474;2023-05-10T06:57:36;13.10;99.90
11762;DHT22;5938;47.098;15.474;2023-05-10T07:01:41;13.30;99.90
11762;DHT22;5938;47.098;15.474;2023-05-10T07:05:45;13.50;99.90
11762;DHT22;5938;47.098;15.474;2023-05-10T07:09:48;13.30;99.90
11762;DHT22;5938;47.098;15.474;2023-05-10T07:13:54;13.40;99.90
11762;DHT22;5938;47.098;15.474;2023-05-10T07:17:59;13.40;99.90
11762;DHT22;5938;47.098;15.474;2023-05-10T07:22:02;13.60;99.90
11762;DHT22;5938;47.098;15.474;2023-05-10T07:26:06;13.60;99.90
11762;DHT22;5938;47.098;15.474;2023-05-10T07:30:10;13.50;99.90
11762;DHT22;5938;47.098;15.474;2023-05-10T07:34:14;13.70;99.90
11762;DHT22;5938;47.098;15.474;2023-05-10T07:38:18;13.70;99.90
11762;DHT22;5938;47.098;15.474;2023-05-10T07:42:21;14.10;99.90
11762;DHT22;5938;47.098;15.474;2023-05-10T07:46:24;13.80;99.90
11762;DHT22;5938;47.098;15.474;2023-05-10T07:50:29;14.20;98.90
11762;DHT22;5938;47.098;15.474;2023-05-10T07:54:32;14.40;98.70
11762;DHT22;5938;47.098;15.474;2023-05-10T07:58:35;14.90;99.30
11762;DHT22;5938;47.098;15.474;2023-05-10T08:02:39;15.10;98.00
11762;DHT22;5938;47.098;15.474;2023-05-10T08:06:44;15.50;97.40
11762;DHT22;5938;47.098;15.474;2023-05-10T08:10:48;16.10;96.60
11762;DHT22;5938;47.098;15.474;2023-05-10T08:14:51;16.30;95.20
11762;DHT22;5938;47.098;15.474;2023-05-10T08:18:54;16.50;94.50
11762;DHT22;5938;47.098;15.474;2023-05-10T08:22:59;16.60;93.90
11762;DHT22;5938;47.098;15.474;2023-05-10T08:27:02;16.30;93.80
11762;DHT22;5938;47.098;15.474;2023-05-10T08:31:07;16.30;93.80
11762;DHT22;5938;47.098;15.474;2023-05-10T08:35:10;16.70;93.30
11762;DHT22;5938;47.098;15.474;2023-05-10T08:39:18;16.70;93.80
11762;DHT22;5938;47.098;15.474;2023-05-10T08:43:31;16.20;93.70
11762;DHT22;5938;47.098;15.474;2023-05-10T08:47:36;17.00;93.80
11762;DHT22;5938;47.098;15.474;2023-05-10T08:51:45;17.80;92.60
11762;DHT22;5938;47.098;15.474;2023-05-10T08:55:52;18.00;92.30
11762;DHT22;5938;47.098;15.474;2023-05-10T08:59:56;18.20;90.00
11762;DHT22;5938;47.098;15.474;2023-05-10T09:04:00;18.70;90.30
11762;DHT22;5938;47.098;15.474;2023-05-10T09:08:04;18.70;88.60
11762;DHT22;5938;47.098;15.474;2023-05-10T09:12:10;18.30;90.10
11762;DHT22;5938;47.098;15.474;2023-05-10T09:16:13;18.80;90.30
11762;DHT22;5938;47.098;15.474;2023-05-10T09:20:23;18.50;87.80
11762;DHT22;5938;47.098;15.474;2023-05-10T09:24:26;19.30;86.10
11762;DHT22;5938;47.098;15.474;2023-05-10T09:28:33;18.50;88.30
11762;DHT22;5938;47.098;15.474;2023-05-10T09:32:37;20.40;85.70
11762;DHT22;5938;47.098;15.474;2023-05-10T09:36:51;22.40;81.20
11762;DHT22;5938;47.098;15.474;2023-05-10T09:40:54;21.90;77.10
11762;DHT22;5938;47.098;15.474;2023-05-10T09:45:02;21.50;83.00
11762;DHT22;5938;47.098;15.474;2023-05-10T09:49:09;20.60;81.60
11762;DHT22;5938;47.098;15.474;2023-05-10T09:53:17;20.40;82.20
11762;DHT22;5938;47.098;15.474;2023-05-10T09:57:22;20.50;80.20
11762;DHT22;5938;47.098;15.474;2023-05-10T10:01:28;20.40;80.20
11762;DHT22;5938;47.098;15.474;2023-05-10T10:05:32;21.50;80.90
11762;DHT22;5938;47.098;15.474;2023-05-10T10:09:35;21.60;75.70
11762;DHT22;5938;47.098;15.474;2023-05-10T10:13:39;22.20;74.70
11762;DHT22;5938;47.098;15.474;2023-05-10T10:17:43;23.40;74.30
11762;DHT22;5938;47.098;15.474;2023-05-10T10:21:47;25.20;70.40
11762;DHT22;5938;47.098;15.474;2023-05-10T10:25:51;26.20;71.60
11762;DHT22;5938;47.098;15.474;2023-05-10T10:30:03;25.80;70.80
11762;DHT22;5938;47.098;15.474;2023-05-10T10:34:10;25.40;66.90
11762;DHT22;5938;47.098;15.474;2023-05-10T10:38:16;25.70;71.50
11762;DHT22;5938;47.098;15.474;2023-05-10T10:47:20;24.20;68.60
11762;DHT22;5938;47.098;15.474;2023-05-10T10:51:38;24.30;68.60
11762;DHT22;5938;47.098;15.474;2023-05-10T10:55:46;25.30;67.60
11762;DHT22;5938;47.098;15.474;2023-05-10T10:59:50;24.40;70.00
11762;DHT22;5938;47.098;15.474;2023-05-10T11:04:18;23.10;70.40
11762;DHT22;5938;47.098;15.474;2023-05-10T11:08:28;21.20;75.30
11762;DHT22;5938;47.098;15.474;2023-05-10T11:12:33;21.00;78.80
11762;DHT22;5938;47.098;15.474;2023-05-10T11:16:41;20.70;78.40
11762;DHT22;5938;47.098;15.474;2023-05-10T11:20:50;20.40;79.20
11762;DHT22;5938;47.098;15.474;2023-05-10T11:24:58;19.60;81.90
11762;DHT22;5938;47.098;15.474;2023-05-10T11:29:02;19.20;82.60
11762;DHT22;5938;47.098;15.474;2023-05-10T11:33:07;18.70;84.60
11762;DHT22;5938;47.098;15.474;2023-05-10T11:37:11;18.30;87.90
11762;DHT22;5938;47.098;15.474;2023-05-10T11:41:17;18.20;87.30
11762;DHT22;5938;47.098;15.474;2023-05-10T11:45:23;18.10;88.10
11762;DHT22;5938;47.098;15.474;2023-05-10T11:49:28;18.20;89.30
11762;DHT22;5938;47.098;15.474;2023-05-10T11:53:33;18.10;88.70
11762;DHT22;5938;47.098;15.474;2023-05-10T11:57:37;18.00;90.00
11762;DHT22;5938;47.098;15.474;2023-05-10T12:01:43;18.10;90.00
11762;DHT22;5938;47.098;15.474;2023-05-10T12:05:46;17.90;88.10
11762;DHT22;5938;47.098;15.474;2023-05-10T12:10:07;18.00;90.00
11762;DHT22;5938;47.098;15.474;2023-05-10T12:14:18;18.20;88.10
11762;DHT22;5938;47.098;15.474;2023-05-10T12:18:23;17.90;89.70
11762;DHT22;5938;47.098;15.474;2023-05-10T12:22:34;18.30;89.20
11762;DHT22;5938;47.098;15.474;2023-05-10T12:26:37;18.40;89.60
11762;DHT22;5938;47.098;15.474;2023-05-10T12:30:42;18.30;87.70
11762;DHT22;5938;47.098;15.474;2023-05-10T12:34:47;18.30;88.50
11762;DHT22;5938;47.098;15.474;2023-05-10T12:38:50;18.20;89.00
11762;DHT22;5938;47.098;15.474;2023-05-10T12:42:54;18.10;88.60
11762;DHT22;5938;47.098;15.474;2023-05-10T12:46:59;17.80;90.50
11762;DHT22;5938;47.098;15.474;2023-05-10T12:51:03;17.80;89.80
11762;DHT22;5938;47.098;15.474;2023-05-10T12:55:08;17.60;89.60
11762;DHT22;5938;47.098;15.474;2023-05-10T12:59:12;17.60;89.70
11762;DHT22;5938;47.098;15.474;2023-05-10T13:03:16;17.50;90.90
11762;DHT22;5938;47.098;15.474;2023-05-10T13:07:20;17.20;90.30
11762;DHT22;5938;47.098;15.474;2023-05-10T13:11:23;17.10;90.00
11762;DHT22;5938;47.098;15.474;2023-05-10T13:15:27;16.90;90.00
11762;DHT22;5938;47.098;15.474;2023-05-10T13:19:31;17.00;91.10
11762;DHT22;5938;47.098;15.474;2023-05-10T13:23:34;17.10;91.10
11762;DHT22;5938;47.098;15.474;2023-05-10T13:27:38;17.20;90.70
11762;DHT22;5938;47.098;15.474;2023-05-10T13:31:41;17.30;90.40
11762;DHT22;5938;47.098;15.474;2023-05-10T13:35:46;17.30;91.20
11762;DHT22;5938;47.098;15.474;2023-05-10T13:39:49;17.40;93.00
11762;DHT22;5938;47.098;15.474;2023-05-10T13:43:53;17.50;90.70
11762;DHT22;5938;47.098;15.474;2023-05-10T13:47:57;17.50;90.90
11762;DHT22;5938;47.098;15.474;2023-05-10T13:52:03;17.60;91.10
11762;DHT22;5938;47.098;15.474;2023-05-10T13:56:08;17.70;90.70
11762;DHT22;5938;47.098;15.474;2023-05-10T14:00:19;17.90;90.30
11762;DHT22;5938;47.098;15.474;2023-05-10T14:04:22;18.20;91.00
11762;DHT22;5938;47.098;15.474;2023-05-10T14:08:32;17.90;90.10
11762;DHT22;5938;47.098;15.474;2023-05-10T14:12:36;17.90;90.90
11762;DHT22;5938;47.098;15.474;2023-05-10T14:16:42;17.80;90.50
11762;DHT22;5938;47.098;15.474;2023-05-10T14:20:46;17.60;90.50
11762;DHT22;5938;47.098;15.474;2023-05-10T14:24:51;17.60;90.40
11762;DHT22;5938;47.098;15.474;2023-05-10T14:28:55;18.00;90.30
11762;DHT22;5938;47.098;15.474;2023-05-10T14:32:59;18.40;90.10
11762;DHT22;5938;47.098;15.474;2023-05-10T14:37:03;18.50;90.20
11762;DHT22;5938;47.098;15.474;2023-05-10T14:41:07;18.10;89.90
11762;DHT22;5938;47.098;15.474;2023-05-10T14:45:13;18.20;90.00
11762;DHT22;5938;47.098;15.474;2023-05-10T14:49:16;18.50;90.20
11762;DHT22;5938;47.098;15.474;2023-05-10T14:53:19;18.30;90.10
11762;DHT22;5938;47.098;15.474;2023-05-10T14:57:25;19.20;87.80
11762;DHT22;5938;47.098;15.474;2023-05-10T15:01:31;19.40;86.30
11762;DHT22;5938;47.098;15.474;2023-05-10T15:05:36;20.30;85.70
11762;DHT22;5938;47.098;15.474;2023-05-10T15:09:40;20.40;82.00
11762;DHT22;5938;47.098;15.474;2023-05-10T15:13:44;21.00;84.20
11762;DHT22;5938;47.098;15.474;2023-05-10T15:17:48;20.30;83.40
11762;DHT22;5938;47.098;15.474;2023-05-10T15:21:51;19.40;87.10
11762;DHT22;5938;47.098;15.474;2023-05-10T15:25:54;18.70;88.40
11762;DHT22;5938;47.098;15.474;2023-05-10T15:29:59;17.90;90.90
11762;DHT22;5938;47.098;15.474;2023-05-10T15:34:02;17.70;92.30
11762;DHT22;5938;47.098;15.474;2023-05-10T15:38:06;17.30;94.00
11762;DHT22;5938;47.098;15.474;2023-05-10T15:42:09;16.90;92.90
11762;DHT22;5938;47.098;15.474;2023-05-10T15:46:14;16.90;94.00
11762;DHT22;5938;47.098;15.474;2023-05-10T15:50:17;16.80;92.70
11762;DHT22;5938;47.098;15.474;2023-05-10T15:54:20;16.90;92.50
11762;DHT22;5938;47.098;15.474;2023-05-10T15:58:24;17.20;91.90
11762;DHT22;5938;47.098;15.474;2023-05-10T16:02:28;17.50;91.30
11762;DHT22;5938;47.098;15.474;2023-05-10T16:06:33;17.50;90.90
11762;DHT22;5938;47.098;15.474;2023-05-10T16:10:37;17.60;92.60
11762;DHT22;5938;47.098;15.474;2023-05-10T16:14:40;17.20;91.50
11762;DHT22;5938;47.098;15.474;2023-05-10T16:18:46;16.90;93.40
11762;DHT22;5938;47.098;15.474;2023-05-10T16:22:50;16.90;94.00
11762;DHT22;5938;47.098;15.474;2023-05-10T16:26:54;16.70;93.90
11762;DHT22;5938;47.098;15.474;2023-05-10T16:30:58;16.50;95.30
11762;DHT22;5938;47.098;15.474;2023-05-10T16:35:06;16.40;96.00
11762;DHT22;5938;47.098;15.474;2023-05-10T16:39:10;16.30;95.70
11762;DHT22;5938;47.098;15.474;2023-05-10T16:43:15;16.10;95.90
11762;DHT22;5938;47.098;15.474;2023-05-10T16:47:19;16.00;95.90
11762;DHT22;5938;47.098;15.474;2023-05-10T16:51:24;16.00;97.10
11762;DHT22;5938;47.098;15.474;2023-05-10T16:55:28;15.90;97.30
11762;DHT22;5938;47.098;15.474;2023-05-10T16:59:32;15.70;97.90
11762;DHT22;5938;47.098;15.474;2023-05-10T17:03:35;15.70;97.90
11762;DHT22;5938;47.098;15.474;2023-05-10T17:07:41;15.70;99.00
11762;DHT22;5938;47.098;15.474;2023-05-10T17:11:45;15.70;98.90
11762;DHT22;5938;47.098;15.474;2023-05-10T17:15:49;15.80;99.10
11762;DHT22;5938;47.098;15.474;2023-05-10T17:19:53;15.60;98.90
11762;DHT22;5938;47.098;15.474;2023-05-10T17:23:58;15.50;98.90
11762;DHT22;5938;47.098;15.474;2023-05-10T17:28:02;15.50;99.90
11762;DHT22;5938;47.098;15.474;2023-05-10T17:32:07;15.30;99.90
11762;DHT22;5938;47.098;15.474;2023-05-10T17:36:12;15.20;99.90
11762;DHT22;5938;47.098;15.474;2023-05-10T17:40:17;15.00;99.90
11762;DHT22;5938;47.098;15.474;2023-05-10T17:44:22;14.80;99.90
11762;DHT22;5938;47.098;15.474;2023-05-10T17:48:29;14.70;99.90
11762;DHT22;5938;47.098;15.474;2023-05-10T17:52:34;14.50;99.90
11762;DHT22;5938;47.098;15.474;2023-05-10T17:56:40;14.50;99.90
11762;DHT22;5938;47.098;15.474;2023-05-10T18:00:44;14.30;99.90
11762;DHT22;5938;47.098;15.474;2023-05-10T18:04:48;14.20;99.90
11762;DHT22;5938;47.098;15.474;2023-05-10T18:08:52;14.20;99.90
11762;DHT22;5938;47.098;15.474;2023-05-10T18:12:58;14.10;99.90
11762;DHT22;5938;47.098;15.474;2023-05-10T18:17:09;14.00;99.90
11762;DHT22;5938;47.098;15.474;2023-05-10T18:21:14;13.90;99.90
11762;DHT22;5938;47.098;15.474;2023-05-10T18:25:18;13.90;99.90
11762;DHT22;5938;47.098;15.474;2023-05-10T18:29:26;13.80;99.90
11762;DHT22;5938;47.098;15.474;2023-05-10T18:33:31;13.70;99.90
11762;DHT22;5938;47.098;15.474;2023-05-10T18:37:36;13.60;99.90
11762;DHT22;5938;47.098;15.474;2023-05-10T18:41:42;13.50;99.90
11762;DHT22;5938;47.098;15.474;2023-05-10T18:45:48;13.50;99.90
11762;DHT22;5938;47.098;15.474;2023-05-10T18:49:53;13.40;99.90
11762;DHT22;5938;47.098;15.474;2023-05-10T18:53:57;13.40;99.90
11762;DHT22;5938;47.098;15.474;2023-05-10T18:58:02;13.30;99.90
11762;DHT22;5938;47.098;15.474;2023-05-10T19:02:08;13.30;99.90
11762;DHT22;5938;47.098;15.474;2023-05-10T19:06:12;13.30;99.90
11762;DHT22;5938;47.098;15.474;2023-05-10T19:10:18;13.20;99.90
11762;DHT22;5938;47.098;15.474;2023-05-10T19:14:23;13.20;99.90
11762;DHT22;5938;47.098;15.474;2023-05-10T19:18:29;13.10;99.90
11762;DHT22;5938;47.098;15.474;2023-05-10T19:22:40;13.10;99.90
11762;DHT22;5938;47.098;15.474;2023-05-10T19:27:05;13.00;99.90
11762;DHT22;5938;47.098;15.474;2023-05-10T19:31:11;13.00;99.90
11762;DHT22;5938;47.098;15.474;2023-05-10T19:35:17;13.10;99.90
11762;DHT22;5938;47.098;15.474;2023-05-10T19:39:22;12.90;99.90
11762;DHT22;5938;47.098;15.474;2023-05-10T19:43:29;13.00;99.90
11762;DHT22;5938;47.098;15.474;2023-05-10T19:47:35;12.90;99.90
11762;DHT22;5938;47.098;15.474;2023-05-10T19:51:42;12.80;99.90
11762;DHT22;5938;47.098;15.474;2023-05-10T19:55:46;12.80;99.90
11762;DHT22;5938;47.098;15.474;2023-05-10T19:59:50;12.80;99.90
11762;DHT22;5938;47.098;15.474;2023-05-10T20:03:54;12.80;99.90
11762;DHT22;5938;47.098;15.474;2023-05-10T20:08:00;12.80;99.90
11762;DHT22;5938;47.098;15.474;2023-05-10T20:12:04;12.70;99.90
11762;DHT22;5938;47.098;15.474;2023-05-10T20:16:09;12.70;99.90
11762;DHT22;5938;47.098;15.474;2023-05-10T20:20:14;12.70;99.90
11762;DHT22;5938;47.098;15.474;2023-05-10T20:24:20;12.70;99.90
11762;DHT22;5938;47.098;15.474;2023-05-10T20:28:27;12.70;99.90
11762;DHT22;5938;47.098;15.474;2023-05-10T20:32:33;12.70;99.90
11762;DHT22;5938;47.098;15.474;2023-05-10T20:36:38;12.60;99.90
11762;DHT22;5938;47.098;15.474;2023-05-10T20:40:44;12.60;99.90
11762;DHT22;5938;47.098;15.474;2023-05-10T20:44:49;12.60;99.90
11762;DHT22;5938;47.098;15.474;2023-05-10T20:48:54;12.60;99.90
11762;DHT22;5938;47.098;15.474;2023-05-10T20:52:59;12.50;99.90
11762;DHT22;5938;47.098;15.474;2023-05-10T20:57:05;12.60;99.90
11762;DHT22;5938;47.098;15.474;2023-05-10T21:01:10;12.60;99.90
11762;DHT22;5938;47.098;15.474;2023-05-10T21:05:13;12.50;99.90
11762;DHT22;5938;47.098;15.474;2023-05-10T21:09:16;12.60;99.90
11762;DHT22;5938;47.098;15.474;2023-05-10T21:13:21;12.60;99.90
11762;DHT22;5938;47.098;15.474;2023-05-10T21:17:24;12.50;99.90
11762;DHT22;5938;47.098;15.474;2023-05-10T21:21:28;12.40;99.90
11762;DHT22;5938;47.098;15.474;2023-05-10T21:25:31;12.50;99.90
11762;DHT22;5938;47.098;15.474;2023-05-10T21:29:36;12.40;99.90
11762;DHT22;5938;47.098;15.474;2023-05-10T21:33:39;12.30;99.90
11762;DHT22;5938;47.098;15.474;2023-05-10T21:37:42;12.20;99.90
11762;DHT22;5938;47.098;15.474;2023-05-10T21:41:45;12.10;99.90
11762;DHT22;5938;47.098;15.474;2023-05-10T21:45:50;12.00;99.90
11762;DHT22;5938;47.098;15.474;2023-05-10T21:49:53;11.90;99.90
11762;DHT22;5938;47.098;15.474;2023-05-10T21:53:57;11.70;99.90
11762;DHT22;5938;47.098;15.474;2023-05-10T21:58:00;11.70;99.90
11762;DHT22;5938;47.098;15.474;2023-05-10T22:02:05;11.60;99.90
11762;DHT22;5938;47.098;15.474;2023-05-10T22:06:08;11.60;99.90
11762;DHT22;5938;47.098;15.474;2023-05-10T22:10:11;11.50;99.90
11762;DHT22;5938;47.098;15.474;2023-05-10T22:14:14;11.60;99.90
11762;DHT22;5938;47.098;15.474;2023-05-10T22:18:20;11.50;99.90
11762;DHT22;5938;47.098;15.474;2023-05-10T22:22:24;11.60;99.90
11762;DHT22;5938;47.098;15.474;2023-05-10T22:26:27;11.60;99.90
11762;DHT22;5938;47.098;15.474;2023-05-10T22:30:31;11.60;99.90
11762;DHT22;5938;47.098;15.474;2023-05-10T22:34:35;11.60;99.90
11762;DHT22;5938;47.098;15.474;2023-05-10T22:38:38;11.50;99.90
11762;DHT22;5938;47.098;15.474;2023-05-10T22:42:41;11.50;99.90
11762;DHT22;5938;47.098;15.474;2023-05-10T22:46:45;11.50;99.90
11762;DHT22;5938;47.098;15.474;2023-05-10T22:50:49;11.40;99.90
11762;DHT22;5938;47.098;15.474;2023-05-10T22:54:53;11.40;99.90
11762;DHT22;5938;47.098;15.474;2023-05-10T22:58:56;11.30;99.90
11762;DHT22;5938;47.098;15.474;2023-05-10T23:03:00;11.40;99.90
11762;DHT22;5938;47.098;15.474;2023-05-10T23:07:05;11.40;99.90
11762;DHT22;5938;47.098;15.474;2023-05-10T23:11:08;11.20;99.90
11762;DHT22;5938;47.098;15.474;2023-05-10T23:15:11;11.20;99.90
11762;DHT22;5938;47.098;15.474;2023-05-10T23:19:14;11.20;99.90
11762;DHT22;5938;47.098;15.474;2023-05-10T23:23:19;11.20;99.90
11762;DHT22;5938;47.098;15.474;2023-05-10T23:27:27;11.10;99.90
11762;DHT22;5938;47.098;15.474;2023-05-10T23:31:30;11.10;99.90
11762;DHT22;5938;47.098;15.474;2023-05-10T23:35:34;11.10;99.90
11762;DHT22;5938;47.098;15.474;2023-05-10T23:39:38;11.10;99.90
11762;DHT22;5938;47.098;15.474;2023-05-10T23:43:42;11.10;99.90
11762;DHT22;5938;47.098;15.474;2023-05-10T23:47:45;11.10;99.90
11762;DHT22;5938;47.098;15.474;2023-05-10T23:51:48;11.00;99.90
11762;DHT22;5938;47.098;15.474;2023-05-10T23:55:53;11.00;99.90
11762;DHT22;5938;47.098;15.474;2023-05-10T23:59:56;11.00;99.90
